Time;durP1;ratioP1;P1;durP2;ratioP2;P2;SDS_P1;SDS_P2;PMS_P1;PMS_P2;Temp;Humidity;BMP_temperature;BMP_pressure;BME280_temperature;BME280_humidity;BME280_pressure;Samples;Min_cycle;Max_cycle;Signal;HPM_P1;HPM_P2
2023/09/24 00:01:13;;;;;;;0.10;0.10;;;;;;;11.29;100.00;99821.75;5109400;28;20191;-58
2023/09/24 00:04:01;;;;;;;0.10;0.10;;;;;;;11.19;100.00;99824.06;5096070;28;20194;-58
2023/09/24 00:06:49;;;;;;;0.10;0.10;;;;;;;11.54;100.00;99829.19;5095843;28;20202;-57
2023/09/24 00:09:36;;;;;;;0.10;0.10;;;;;;;11.39;100.00;99829.16;5095877;28;20199;-58
2023/09/24 00:12:23;;;;;;;0.10;0.10;;;;;;;11.43;100.00;99830.66;5096008;28;20308;-57
2023/09/24 00:15:12;;;;;;;0.10;0.10;;;;;;;11.17;100.00;99832.13;5095610;28;20253;-58
2023/09/24 00:18:00;;;;;;;0.10;0.10;;;;;;;11.17;100.00;99832.13;5095832;28;20191;-57
2023/09/24 00:20:51;;;;;;;0.10;0.10;;;;;;;11.44;100.00;99832.38;5095747;28;20241;-56
2023/09/24 00:23:38;;;;;;;0.10;0.10;;;;;;;11.43;100.00;99828.00;5105158;28;20240;-57
2023/09/24 00:26:25;;;;;;;0.10;0.10;;;;;;;11.17;100.00;99823.31;5114734;28;20194;-58
2023/09/24 00:29:13;;;;;;;0.10;0.10;;;;;;;11.30;100.00;99828.81;5116247;28;20206;-58
2023/09/24 00:32:01;;;;;;;0.10;0.10;;;;;;;11.40;100.00;99822.91;5115033;28;20610;-57
2023/09/24 00:34:50;;;;;;;0.10;0.10;;;;;;;11.18;100.00;99832.97;5115780;28;20190;-57
2023/09/24 00:37:39;;;;;;;0.10;0.10;;;;;;;11.37;100.00;99838.97;5115446;28;20218;-57
2023/09/24 00:40:25;;;;;;;0.10;0.10;;;;;;;11.18;100.00;99828.53;5114205;28;20269;-57
2023/09/24 00:43:27;;;;;;;0.10;0.10;;;;;;;11.06;100.00;99828.38;5100150;28;20299;-57
2023/09/24 00:46:16;;;;;;;0.10;0.10;;;;;;;10.98;100.00;99835.88;5115422;28;20678;-57
2023/09/24 00:49:03;;;;;;;0.10;0.10;;;;;;;11.38;100.00;99842.47;5115655;28;20288;-57
2023/09/24 00:51:49;;;;;;;0.10;0.10;;;;;;;10.84;100.00;99850.75;5100175;28;20206;-57
2023/09/24 00:54:38;;;;;;;0.10;0.10;;;;;;;10.64;100.00;99848.31;5114264;28;20190;-58
2023/09/24 00:57:26;;;;;;;0.10;0.10;;;;;;;10.64;100.00;99858.06;5115159;28;20206;-58
2023/09/24 01:00:16;;;;;;;0.10;0.10;;;;;;;10.76;100.00;99854.75;5114235;28;20203;-57
2023/09/24 01:03:05;;;;;;;0.10;0.10;;;;;;;10.73;100.00;99853.13;5115127;28;20195;-58
2023/09/24 01:05:55;;;;;;;0.10;0.10;;;;;;;10.83;100.00;99851.69;5114112;28;20200;-58
2023/09/24 01:08:43;;;;;;;0.10;0.10;;;;;;;10.67;100.00;99852.59;5115271;28;20202;-57
2023/09/24 01:11:33;;;;;;;0.10;0.10;;;;;;;10.64;100.00;99860.69;5112512;28;20214;-57
2023/09/24 01:14:20;;;;;;;0.10;0.10;;;;;;;10.46;100.00;99854.56;5114267;28;20194;-58
2023/09/24 01:17:11;;;;;;;0.10;0.10;;;;;;;-144.59;100.00;99865.47;5114819;28;20683;-57
2023/09/24 01:19:58;;;;;;;0.10;0.10;;;;;;;10.44;100.00;99867.03;5114762;28;20300;-57
2023/09/24 01:22:46;;;;;;;0.10;0.10;;;;;;;10.59;100.00;99871.53;5114735;28;20190;-57
2023/09/24 01:25:35;;;;;;;0.10;0.10;;;;;;;10.81;100.00;99874.78;5113596;28;20202;-57
2023/09/24 01:28:25;;;;;;;0.10;0.10;;;;;;;10.64;100.00;99864.22;5114775;28;20201;-57
2023/09/24 01:31:15;;;;;;;0.10;0.10;;;;;;;10.44;100.00;99864.41;5113564;28;20186;-57
2023/09/24 01:34:05;;;;;;;0.10;0.10;;;;;;;10.22;100.00;99860.19;5114606;28;20190;-57
2023/09/24 01:36:53;;;;;;;0.10;0.10;;;;;;;10.20;100.00;99863.81;5113139;28;20229;-56
2023/09/24 01:39:43;;;;;;;0.10;0.10;;;;;;;10.25;100.00;99865.34;5113461;28;20194;-57
2023/09/24 01:42:30;;;;;;;0.10;0.10;;;;;;;10.32;100.00;99864.06;5114363;28;20711;-57
2023/09/24 01:45:16;;;;;;;0.10;0.10;;;;;;;10.32;100.00;99863.22;5114449;28;20206;-57
2023/09/24 01:48:04;;;;;;;0.10;0.10;;;;;;;10.37;100.00;99871.78;5114350;28;20217;-56
2023/09/24 01:50:52;;;;;;;0.10;0.10;;;;;;;10.13;100.00;99859.75;5114228;28;20194;-56
2023/09/24 01:53:42;;;;;;;0.10;0.10;;;;;;;10.22;100.00;99857.53;5113146;28;20285;-58
2023/09/24 01:56:30;;;;;;;0.10;0.10;;;;;;;10.25;100.00;99867.13;5112702;28;20633;-58
2023/09/24 01:59:17;;;;;;;0.10;0.10;;;;;;;10.54;100.00;99868.28;5112966;28;20317;-57
2023/09/24 02:02:05;;;;;;;0.10;0.10;;;;;;;10.44;100.00;99865.25;5098459;28;20218;-57
2023/09/24 02:04:54;;;;;;;0.10;0.10;;;;;;;10.18;100.00;99866.56;5113777;28;20252;-58
2023/09/24 02:07:41;;;;;;;0.10;0.10;;;;;;;9.89;100.00;99867.16;5113811;28;20186;-57
2023/09/24 02:10:28;;;;;;;0.10;0.10;;;;;;;15.52;100.00;99870.38;5112474;28;20275;-58
2023/09/24 02:13:16;;;;;;;0.10;0.10;;;;;;;9.92;100.00;99873.16;5112623;28;20224;-58
2023/09/24 02:16:07;;;;;;;0.10;0.10;;;;;;;9.85;100.00;99885.00;5113262;28;20244;-58
2023/09/24 02:18:53;;;;;;;0.10;0.10;;;;;;;9.54;100.00;99890.03;5113392;28;20218;-57
2023/09/24 02:21:40;;;;;;;0.10;0.10;;;;;;;9.93;100.00;99897.81;5113768;28;20193;-58
2023/09/24 02:24:27;;;;;;;0.10;0.10;;;;;;;10.10;100.00;99895.19;5113102;28;20241;-58
2023/09/24 02:27:14;;;;;;;0.10;0.10;;;;;;;10.32;100.00;99900.28;5113008;28;20329;-58
2023/09/24 02:30:03;;;;;;;0.10;0.10;;;;;;;9.82;100.00;99903.66;5112424;28;20237;-58
2023/09/24 02:32:51;;;;;;;0.10;0.10;;;;;;;9.86;100.00;99901.72;5113311;28;20247;-58
2023/09/24 02:35:38;;;;;;;0.10;0.10;;;;;;;9.59;100.00;99896.84;5113457;28;20212;-58
2023/09/24 02:38:25;;;;;;;0.10;0.10;;;;;;;9.52;100.00;99905.97;5113319;28;20236;-58
2023/09/24 02:41:12;;;;;;;0.10;0.10;;;;;;;9.64;100.00;99915.97;5111821;28;20195;-58
2023/09/24 02:44:01;;;;;;;0.10;0.10;;;;;;;9.79;100.00;99917.03;5113280;28;20206;-58
2023/09/24 02:46:49;;;;;;;0.10;0.10;;;;;;;9.80;100.00;99915.25;5113318;28;20312;-58
2023/09/24 02:49:36;;;;;;;0.10;0.10;;;;;;;9.56;100.00;99912.88;5113176;28;20198;-58
2023/09/24 02:52:23;;;;;;;0.10;0.10;;;;;;;9.66;100.00;99911.50;5113331;28;20676;-58
2023/09/24 02:55:12;;;;;;;0.10;0.10;;;;;;;9.53;100.00;99906.84;5110954;28;20205;-58
2023/09/24 02:57:59;;;;;;;0.10;0.10;;;;;;;9.53;100.00;99915.63;5097538;28;20792;-58
2023/09/24 03:00:46;;;;;;;0.10;0.10;;;;;;;9.51;100.00;99920.16;5113177;28;20190;-57
2023/09/24 03:03:35;;;;;;;0.10;0.10;;;;;;;9.54;100.00;99917.34;5112247;28;20225;-58
2023/09/24 03:06:22;;;;;;;0.10;0.10;;;;;;;9.61;100.00;99915.28;5113248;28;20305;-58
2023/09/24 03:09:11;;;;;;;0.10;0.10;;;;;;;9.61;100.00;154042.72;5097729;28;20206;-58
2023/09/24 03:11:58;;;;;;;0.10;0.10;;;;;;;9.36;100.00;99915.56;5096393;28;20194;-57
2023/09/24 03:14:45;;;;;;;0.10;0.10;;;;;;;9.63;100.00;99916.03;5097806;28;20541;-57
2023/09/24 03:17:32;;;;;;;0.10;0.10;;;;;;;9.58;100.00;99915.44;5112937;28;20214;-57
2023/09/24 03:20:21;;;;;;;0.10;0.10;;;;;;;9.66;100.00;99924.72;5112076;28;20715;-58
2023/09/24 03:23:09;;;;;;;0.10;0.10;;;;;;;9.60;100.00;99926.78;5112111;28;20348;-58
2023/09/24 03:25:56;;;;;;;0.10;0.10;;;;;;;9.56;100.00;99933.16;5115589;28;20210;-58
2023/09/24 03:28:43;;;;;;;0.10;0.10;;;;;;;9.57;100.00;76355.56;5117015;28;20244;-58
2023/09/24 03:31:32;;;;;;;0.10;0.10;;;;;;;9.42;100.00;99936.44;5116823;28;20194;-58
2023/09/24 03:34:20;;;;;;;0.10;0.10;;;;;;;9.59;100.00;99946.22;5101464;28;20202;-58
2023/09/24 03:37:09;;;;;;;0.10;0.10;;;;;;;9.66;100.00;99945.88;5101277;28;20297;-58
2023/09/24 03:39:57;;;;;;;0.10;0.10;;;;;;;9.64;100.00;99946.84;5114012;28;20197;-58
2023/09/24 03:42:45;;;;;;;0.10;0.10;;;;;;;9.61;100.00;99947.00;5116639;28;20326;-58
2023/09/24 03:45:32;;;;;;;0.10;0.10;;;;;;;9.52;100.00;99952.72;5116704;28;20198;-58
2023/09/24 03:48:18;;;;;;;0.10;0.10;;;;;;;9.35;100.00;99957.00;5116456;28;20249;-58
2023/09/24 03:51:05;;;;;;;0.10;0.10;;;;;;;9.30;100.00;99959.03;5116658;28;20256;-58
2023/09/24 03:53:54;;;;;;;0.10;0.10;;;;;;;9.23;100.00;99964.66;5116702;28;20228;-57
2023/09/24 03:56:42;;;;;;;0.10;0.10;;;;;;;9.48;100.00;99964.41;5115179;28;20190;-58
2023/09/24 03:59:28;;;;;;;0.10;0.10;;;;;;;9.26;100.00;99957.44;5115126;28;20214;-57
2023/09/24 04:02:15;;;;;;;0.10;0.10;;;;;;;9.26;100.00;108103.53;5115181;28;20228;-58
2023/09/24 04:05:02;;;;;;;0.10;0.10;;;;;;;8.98;100.00;99973.69;5116356;28;20217;-58
2023/09/24 04:07:50;;;;;;;0.10;0.10;;;;;;;9.05;100.00;99976.91;5115180;28;20308;-58
2023/09/24 04:10:40;;;;;;;0.10;0.10;;;;;;;8.98;100.00;99975.47;5099388;28;20209;-58
2023/09/24 04:13:26;;;;;;;0.10;0.10;;;;;;;8.92;100.00;99976.59;5116204;28;20209;-58
2023/09/24 04:16:14;;;;;;;0.10;0.10;;;;;;;9.05;100.00;99977.75;5115982;28;20680;-58
2023/09/24 04:19:02;;;;;;;0.10;0.10;;;;;;;9.44;100.00;99984.81;5115683;28;20209;-58
2023/09/24 04:21:48;;;;;;;0.10;0.10;;;;;;;9.69;100.00;99982.75;5115926;28;20202;-58
2023/09/24 04:24:36;;;;;;;0.10;0.10;;;;;;;9.57;100.00;99985.97;5115515;28;20264;-58
2023/09/24 04:27:25;;;;;;;0.10;0.10;;;;;;;9.33;100.00;99987.94;5115768;28;20313;-58
2023/09/24 04:30:16;;;;;;;0.10;0.10;;;;;;;9.23;100.00;99993.72;5115671;28;20190;-58
2023/09/24 04:33:09;;;;;;;0.10;0.10;;;;;;;9.11;100.00;99988.06;5115756;28;20190;-57
2023/09/24 04:35:57;;;;;;;0.10;0.10;;;;;;;9.33;100.00;99997.66;5114139;28;20198;-58
2023/09/24 04:38:43;;;;;;;0.10;0.10;;;;;;;9.06;100.00;100000.63;5115556;28;20244;-58
2023/09/24 04:41:30;;;;;;;0.10;0.10;;;;;;;9.35;100.00;100009.03;5114328;28;20185;-58
2023/09/24 04:44:18;;;;;;;0.10;0.10;;;;;;;9.24;100.00;100016.59;5115354;28;20271;-58
2023/09/24 04:47:05;;;;;;;0.10;0.10;;;;;;;9.13;100.00;100014.44;5115456;28;20205;-57
2023/09/24 04:49:52;;;;;;;0.10;0.10;;;;;;;9.21;100.00;100022.88;5115559;28;20220;-58
2023/09/24 04:52:41;;;;;;;0.10;0.10;;;;;;;9.00;100.00;100027.34;5115297;28;20202;-58
2023/09/24 04:55:29;;;;;;;0.10;0.10;;;;;;;9.12;100.00;100039.16;5114066;28;20194;-58
2023/09/24 04:58:16;;;;;;;0.10;0.10;;;;;;;9.13;100.00;100040.84;5115231;28;20214;-58
2023/09/24 05:01:08;;;;;;;0.10;0.10;;;;;;;9.10;100.00;100036.56;5115175;28;20194;-58
2023/09/24 05:03:55;;;;;;;0.10;0.10;;;;;;;9.15;100.00;100033.72;5115175;28;20213;-58
2023/09/24 05:06:41;;;;;;;0.10;0.10;;;;;;;9.02;100.00;100043.13;5115091;28;20361;-57
2023/09/24 05:09:30;;;;;;;0.10;0.10;;;;;;;9.01;100.00;100051.97;5115227;28;20294;-58
2023/09/24 05:12:16;;;;;;;0.10;0.10;;;;;;;9.06;100.00;100055.25;5115155;28;20245;-58
2023/09/24 05:15:04;;;;;;;0.10;0.10;;;;;;;8.83;100.00;100048.31;5114944;28;20202;-58
2023/09/24 05:17:52;;;;;;;0.10;0.10;;;;;;;8.83;100.00;100050.97;5114807;28;20715;-58
2023/09/24 05:20:39;;;;;;;0.10;0.10;;;;;;;9.04;100.00;100057.97;5114870;28;20680;-57
2023/09/24 05:23:26;;;;;;;0.10;0.10;;;;;;;9.10;100.00;100056.84;5114516;28;20260;-58
2023/09/24 05:26:13;;;;;;;0.10;0.10;;;;;;;9.31;100.00;100071.78;5113481;28;20190;-58
2023/09/24 05:29:00;;;;;;;0.10;0.10;;;;;;;8.92;100.00;100079.63;5114710;28;20349;-58
2023/09/24 05:31:47;;;;;;;0.10;0.10;;;;;;;9.20;100.00;100081.09;5114571;28;20185;-57
2023/09/24 05:34:36;;;;;;;0.10;0.10;;;;;;;9.18;100.00;100083.81;5114048;28;20255;-57
2023/09/24 05:37:23;;;;;;;0.10;0.10;;;;;;;9.07;100.00;100086.94;5099102;28;20259;-58
2023/09/24 05:40:11;;;;;;;0.10;0.10;;;;;;;9.10;100.00;100086.78;5112901;28;20221;-57
2023/09/24 05:42:59;;;;;;;0.10;0.10;;;;;;;9.32;100.00;100092.00;5114412;28;20199;-57
2023/09/24 05:45:47;;;;;;;0.10;0.10;;;;;;;9.35;100.00;100091.00;5114003;28;20718;-58
2023/09/24 05:48:34;;;;;;;0.10;0.10;;;;;;;9.12;100.00;100089.34;5114154;28;20190;-57
2023/09/24 05:51:22;;;;;;;0.10;0.10;;;;;;;9.37;100.00;100095.31;5114199;28;20260;-58
2023/09/24 05:54:10;;;;;;;0.10;0.10;;;;;;;9.74;100.00;100099.78;5113980;28;20272;-57
2023/09/24 05:56:57;;;;;;;0.07;0.07;;;;;;;9.44;100.00;100099.38;5112815;28;20274;-57
2023/09/24 05:59:44;;;;;;;0.10;0.10;;;;;;;-144.59;100.00;100107.78;5113955;28;20217;-57
2023/09/24 06:02:31;;;;;;;0.10;0.10;;;;;;;9.13;100.00;100109.56;5113897;28;20190;-58
2023/09/24 06:05:18;;;;;;;0.10;0.10;;;;;;;9.49;100.00;100119.47;5113685;28;20275;-58
2023/09/24 06:08:06;;;;;;;0.10;0.10;;;;;;;9.27;100.00;100123.06;5111788;28;20197;-58
2023/09/24 06:10:53;;;;;;;0.10;0.10;;;;;;;9.46;100.00;100123.13;5111839;28;20308;-58
2023/09/24 06:13:40;;;;;;;0.10;0.10;;;;;;;9.33;100.00;100129.88;5113796;28;20202;-58
2023/09/24 06:16:27;;;;;;;0.10;0.10;;;;;;;9.49;100.00;100119.47;5113962;28;20194;-58
2023/09/24 06:19:14;;;;;;;0.10;0.10;;;;;;;9.69;100.00;100132.69;5113627;28;20284;-58
2023/09/24 06:22:01;;;;;;;0.10;0.10;;;;;;;9.81;100.00;100134.78;5113667;28;20190;-58
2023/09/24 06:24:50;;;;;;;0.10;0.10;;;;;;;9.89;100.00;100137.06;5112058;28;20225;-58
2023/09/24 06:27:37;;;;;;;0.10;0.10;;;;;;;9.78;100.00;100140.22;5112381;28;20224;-58
2023/09/24 06:30:24;;;;;;;0.10;0.10;;;;;;;9.94;100.00;100143.88;5113533;28;20294;-57
2023/09/24 06:33:11;;;;;;;0.10;0.10;;;;;;;9.91;100.00;100153.75;5113509;28;20198;-58
2023/09/24 06:35:58;;;;;;;0.10;0.10;;;;;;;10.10;100.00;100151.09;5113424;28;20244;-57
2023/09/24 06:38:46;;;;;;;0.10;0.10;;;;;;;10.26;100.00;100160.97;5113240;28;20189;-58
2023/09/24 06:41:35;;;;;;;0.10;0.10;;;;;;;10.31;100.00;100166.88;5112140;28;20190;-57
2023/09/24 06:44:23;;;;;;;0.10;0.10;;;;;;;10.43;100.00;100168.13;5113365;28;20314;-57
2023/09/24 06:47:12;;;;;;;0.10;0.10;;;;;;;10.48;100.00;100170.53;5113186;28;20711;-57
2023/09/24 06:49:59;;;;;;;0.10;0.10;;;;;;;10.66;100.00;100177.63;5113473;28;20367;-57
2023/09/24 06:52:46;;;;;;;0.10;0.10;;;;;;;10.75;100.00;100182.47;5113269;28;20198;-57
2023/09/24 06:55:39;;;;;;;0.10;0.10;;;;;;;10.87;100.00;100178.38;5111827;28;20194;-57
2023/09/24 06:58:28;;;;;;;0.10;0.10;;;;;;;11.13;100.00;100179.75;5114238;28;20248;-57
2023/09/24 07:01:15;;;;;;;0.10;0.10;;;;;;;11.07;100.00;100183.53;5117433;28;20202;-57
2023/09/24 07:04:02;;;;;;;0.10;0.10;;;;;;;11.25;100.00;100175.59;5117368;28;20284;-58
2023/09/24 07:06:51;;;;;;;0.10;0.10;;;;;;;11.36;100.00;100174.13;5117433;28;20197;-57
2023/09/24 07:09:38;;;;;;;0.10;0.10;;;;;;;11.49;100.00;100174.38;5117085;28;20246;-57
2023/09/24 07:12:25;;;;;;;0.10;0.10;;;;;;;11.36;100.00;100176.78;5115458;28;20194;-58
2023/09/24 07:15:13;;;;;;;0.10;0.10;;;;;;;11.97;100.00;100172.78;5116650;28;20218;-58
2023/09/24 07:18:00;;;;;;;0.10;0.10;;;;;;;12.14;100.00;100169.19;5115695;28;20198;-57
2023/09/24 07:20:48;;;;;;;0.00;0.00;;;;;;;11.99;100.00;100165.59;5116101;28;20220;-57
2023/09/24 07:23:35;;;;;;;0.10;0.10;;;;;;;12.40;100.00;100159.81;5116822;28;20226;-57
2023/09/24 07:26:23;;;;;;;0.10;0.10;;;;;;;12.43;100.00;100168.44;5115358;28;20198;-57
2023/09/24 07:29:10;;;;;;;0.10;0.10;;;;;;;12.57;100.00;100173.88;5116916;28;20209;-57
2023/09/24 07:31:58;;;;;;;0.10;0.10;;;;;;;12.90;100.00;100175.56;5116950;28;20205;-57
2023/09/24 07:34:46;;;;;;;0.10;0.10;;;;;;;12.72;100.00;100176.59;5116941;28;20206;-58
2023/09/24 07:37:33;;;;;;;0.10;0.10;;;;;;;13.05;100.00;100181.81;5116739;28;20269;-57
2023/09/24 07:40:20;;;;;;;0.10;0.10;;;;;;;13.29;100.00;100179.53;5115149;28;20217;-57
2023/09/24 07:43:08;;;;;;;0.10;0.10;;;;;;;13.41;100.00;100179.69;5116749;28;20260;-57
2023/09/24 07:45:55;;;;;;;0.10;0.10;;;;;;;13.77;100.00;100177.56;5116604;28;20195;-57
2023/09/24 07:48:46;;;;;;;0.10;0.10;;;;;;;13.36;100.00;100176.44;5100895;28;20194;-57
2023/09/24 07:51:34;;;;;;;0.10;0.10;;;;;;;13.56;100.00;100169.91;5115255;28;20190;-57
2023/09/24 07:54:21;;;;;;;0.10;0.10;;;;;;;14.04;100.00;100168.72;5116590;28;20322;-58
2023/09/24 07:57:08;;;;;;;0.10;0.10;;;;;;;14.21;100.00;100157.03;5115200;28;20240;-57
2023/09/24 07:59:55;;;;;;;0.10;0.10;;;;;;;14.23;100.00;100159.59;5116117;28;20226;-57
2023/09/24 08:02:44;;;;;;;0.10;0.10;;;;;;;14.45;100.00;100159.97;5116380;28;20194;-57
2023/09/24 08:05:33;;;;;;;0.10;0.10;;;;;;;14.71;100.00;100170.78;5116374;28;20190;-57
2023/09/24 08:08:20;;;;;;;0.10;0.10;;;;;;;14.95;100.00;100157.63;5116203;28;20206;-58
2023/09/24 08:11:09;;;;;;;0.10;0.10;;;;;;;14.86;100.00;100167.97;5114604;28;20224;-58
2023/09/24 08:13:56;;;;;;;0.10;0.10;;;;;;;14.78;100.00;100167.63;5116103;28;20232;-57
2023/09/24 08:16:44;;;;;;;0.10;0.10;;;;;;;14.79;100.00;100164.00;5115984;28;20202;-58
2023/09/24 08:19:31;;;;;;;0.10;0.10;;;;;;;14.98;100.00;100168.13;5115958;28;20316;-57
2023/09/24 08:22:19;;;;;;;0.10;0.10;;;;;;;15.33;100.00;100166.59;5115989;28;20194;-58
2023/09/24 08:25:08;;;;;;;0.10;0.10;;;;;;;15.50;100.00;100172.63;5114642;28;20202;-58
2023/09/24 08:27:55;;;;;;;0.10;0.10;;;;;;;15.71;100.00;100164.03;5115846;28;20190;-58
2023/09/24 08:30:42;;;;;;;0.10;0.10;;;;;;;15.43;100.00;100162.34;5115845;28;20190;-57
2023/09/24 08:33:29;;;;;;;0.10;0.10;;;;;;;15.82;100.00;100170.44;5115657;28;20274;-58
2023/09/24 08:36:16;;;;;;;0.10;0.10;;;;;;;16.39;100.00;100165.47;5115752;28;20292;-58
2023/09/24 08:39:04;;;;;;;0.10;0.10;;;;;;;16.17;100.00;100157.28;5115609;28;20229;-57
2023/09/24 08:41:54;;;;;;;0.10;0.10;;;;;;;16.22;100.00;100163.16;5113760;28;20214;-58
2023/09/24 08:44:42;;;;;;;0.00;0.00;;;;;;;15.99;100.00;100159.44;5115124;28;20324;-57
2023/09/24 08:47:31;;;;;;;0.10;0.10;;;;;;;16.43;100.00;100164.28;5115104;28;20547;-57
2023/09/24 08:50:18;;;;;;;0.10;0.10;;;;;;;16.91;100.00;100164.38;5115231;28;20312;-58
2023/09/24 08:53:05;;;;;;;0.10;0.10;;;;;;;17.24;100.00;100163.66;5115294;28;20194;-57
2023/09/24 08:55:54;;;;;;;0.10;0.10;;;;;;;17.04;100.00;100162.50;5113954;28;20206;-57
2023/09/24 08:58:41;;;;;;;0.10;0.10;;;;;;;17.09;100.00;100156.81;5115067;28;20195;-57
2023/09/24 09:01:28;;;;;;;0.10;0.10;;;;;;;17.23;100.00;100164.66;5114972;28;20226;-57
2023/09/24 09:04:15;;;;;;;0.10;0.10;;;;;;;17.59;100.00;100152.94;5115158;28;20205;-58
2023/09/24 09:07:12;;;;;;;0.10;0.10;;;;;;;17.95;100.00;100156.44;5114685;28;20196;-58
2023/09/24 09:10:01;;;;;;;0.10;0.10;;;;;;;17.62;100.00;100160.75;5113942;28;20228;-58
2023/09/24 09:12:50;;;;;;;0.10;0.10;;;;;;;18.16;100.00;100151.22;5113685;28;20236;-58
2023/09/24 09:15:38;;;;;;;0.10;0.10;;;;;;;18.61;100.00;100160.06;5114550;28;20710;-58
2023/09/24 09:18:26;;;;;;;0.10;0.10;;;;;;;18.78;100.00;100148.84;5114942;28;20548;-58
2023/09/24 09:21:25;;;;;;;0.10;0.10;;;;;;;18.57;100.00;9774.69;5112932;28;20245;-58
2023/09/24 09:24:21;;;;;;;0.10;0.10;;;;;;;18.35;100.00;100154.16;5114329;28;20644;-57
2023/09/24 09:27:09;;;;;;;0.10;0.10;;;;;;;19.21;100.00;100147.13;5114803;28;20229;-58
2023/09/24 09:30:11;;;;;;;0.10;0.10;;;;;;;19.69;100.00;100139.44;5114580;28;20190;-58
2023/09/24 09:32:57;;;;;;;0.10;0.10;;;;;;;20.25;100.00;100129.06;5114674;28;20315;-58
2023/09/24 09:35:44;;;;;;;0.10;0.10;;;;;;;20.38;100.00;100133.38;5114461;28;20268;-58
2023/09/24 09:38:31;;;;;;;0.07;0.07;;;;;;;20.35;100.00;100133.63;5114347;28;20748;-58
2023/09/24 09:41:19;;;;;;;0.10;0.10;;;;;;;20.50;100.00;100132.31;5111555;28;20688;-58
2023/09/24 09:44:07;;;;;;;0.10;0.10;;;;;;;20.95;100.00;100130.00;5113038;28;20225;-58
2023/09/24 09:47:00;;;;;;;0.10;0.10;;;;;;;21.33;100.00;100133.72;5114268;28;20202;-58
2023/09/24 09:49:56;;;;;;;0.10;0.10;;;;;;;21.48;100.00;100132.25;5114313;28;20229;-57
2023/09/24 09:52:45;;;;;;;0.00;0.00;;;;;;;21.42;100.00;100125.63;5113996;28;20364;-58
2023/09/24 09:55:32;;;;;;;0.10;0.10;;;;;;;22.34;97.77;100121.38;5112748;28;20199;-58
2023/09/24 09:58:19;;;;;;;0.10;0.10;;;;;;;23.58;84.56;100118.72;5114226;28;20194;-58
2023/09/24 10:01:10;;;;;;;0.10;0.10;;;;;;;24.52;76.15;100117.94;5098159;28;20256;-58
2023/09/24 10:04:00;;;;;;;0.10;0.10;;;;;;;25.93;63.58;100115.00;5113967;28;20213;-58
2023/09/24 10:06:48;;;;;;;0.10;0.10;;;;;;;27.29;56.91;100106.50;5113814;28;20193;-58
2023/09/24 10:09:35;;;;;;;0.10;0.10;;;;;;;28.71;48.27;100109.03;5113172;28;20312;-58
2023/09/24 10:12:35;;;;;;;0.03;0.03;;;;;;;26.81;52.11;100111.22;5113855;28;20250;-58
2023/09/24 10:15:25;;;;;;;0.00;0.00;;;;;;;24.25;65.16;100097.31;5113674;28;20726;-58
2023/09/24 10:18:25;;;;;;;0.00;0.00;;;;;;;26.75;55.51;100098.38;5113352;28;20198;-59
2023/09/24 10:21:28;;;;;;;0.10;0.10;;;;;;;27.71;49.68;100091.53;5113540;28;20210;-59
2023/09/24 10:24:48;;;;;;;0.00;0.00;;;;;;;29.58;44.72;100091.66;5113152;28;20255;-59
2023/09/24 10:28:02;;;;;;;0.00;0.00;;;;;;;31.39;40.12;100082.13;5112113;28;20194;-59
2023/09/24 10:31:03;;;;;;;0.00;0.00;;;;;;;31.40;36.99;100084.66;5113108;28;20268;-57
2023/09/24 10:34:02;;;;;;;0.00;0.00;;;;;;;32.24;36.38;100081.16;5113564;28;20715;-56
2023/09/24 10:37:10;;;;;;;0.00;0.00;;;;;;;31.36;36.18;100069.66;5113464;28;20190;-57
2023/09/24 10:40:05;;;;;;;0.00;0.00;;;;;;;31.90;36.15;100077.66;5112106;28;20197;-57
2023/09/24 10:43:17;;;;;;;0.00;0.00;;;;;;;30.82;36.04;100067.94;5112850;28;20222;-57
2023/09/24 10:46:28;;;;;;;0.00;0.00;;;;;;;33.58;32.19;100074.63;5113556;28;20206;-57
2023/09/24 10:49:19;;;;;;;0.00;0.00;;;;;;;33.73;32.06;100074.31;5113281;28;20228;-57
2023/09/24 10:52:08;;;;;;;0.00;0.00;;;;;;;32.61;33.57;100074.03;5113267;28;20673;-57
2023/09/24 10:54:54;;;;;;;0.00;0.00;;;;;;;33.17;33.15;100076.03;5111096;28;20198;-57
2023/09/24 10:57:45;;;;;;;0.00;0.00;;;;;;;32.80;33.65;100074.13;5112539;28;20708;-57
2023/09/24 11:00:36;;;;;;;0.00;0.00;;;;;;;32.21;34.04;100070.59;5113566;28;20197;-59
2023/09/24 11:03:23;;;;;;;0.00;0.00;;;;;;;32.62;33.53;100074.88;5097967;28;20190;-60
2023/09/24 11:06:10;;;;;;;0.00;0.00;;;;;;;34.26;31.08;100068.22;5112158;28;20198;-58
2023/09/24 11:09:17;;;;;;;0.00;0.00;;;;;;;32.45;33.37;100077.28;5113243;28;20198;-57
2023/09/24 11:12:09;;;;;;;0.00;0.00;;;;;;;34.00;31.94;100077.66;5112908;28;20194;-58
2023/09/24 11:14:56;;;;;;;0.00;0.00;;;;;;;34.28;31.13;100066.94;5113139;28;20191;-58
2023/09/24 11:18:02;;;;;;;0.00;0.00;;;;;;;32.39;33.86;100062.53;5112107;28;20186;-58
2023/09/24 11:20:51;;;;;;;0.00;0.00;;;;;;;34.17;30.74;100055.88;5112450;28;20202;-58
2023/09/24 11:23:38;;;;;;;0.00;0.00;;;;;;;28.61;38.29;100062.13;5112732;28;20731;-58
2023/09/24 11:26:30;;;;;;;0.00;0.00;;;;;;;27.28;43.37;100055.81;5111993;28;20202;-59
2023/09/24 11:29:17;;;;;;;0.00;0.00;;;;;;;28.82;41.33;100066.75;5112035;28;20198;-58
2023/09/24 11:32:04;;;;;;;0.00;0.00;;;;;;;29.21;39.87;100066.31;5113072;28;20194;-58
2023/09/24 11:34:51;;;;;;;0.00;0.00;;;;;;;32.32;35.08;100055.41;5112937;28;20268;-58
2023/09/24 11:37:49;;;;;;;0.00;0.00;;;;;;;33.83;32.62;100053.47;5112852;28;20316;-58
2023/09/24 11:40:38;;;;;;;0.00;0.00;;;;;;;33.92;31.79;100048.53;5096136;28;20198;-59
2023/09/24 11:43:27;;;;;;;0.00;0.00;;;;;;;35.02;30.55;100045.59;5112384;28;20336;-58
2023/09/24 11:46:21;;;;;;;0.00;0.00;;;;;;;33.36;31.78;100044.00;5116815;28;20217;-58
2023/09/24 11:49:09;;;;;;;0.00;0.00;;;;;;;30.45;36.65;100047.38;5115647;28;20817;-58
2023/09/24 11:51:56;;;;;;;0.00;0.00;;;;;;;33.01;33.68;100041.72;5116681;28;20221;-58
2023/09/24 11:54:43;;;;;;;0.00;0.00;;;;;;;32.89;33.39;100038.00;5115134;28;20197;-57
2023/09/24 11:57:30;;;;;;;0.00;0.00;;;;;;;33.49;31.87;100034.78;5100930;28;20261;-58
2023/09/24 12:00:19;;;;;;;0.00;0.00;;;;;;;33.02;31.61;100032.44;5115707;28;20206;-57
2023/09/24 12:03:06;;;;;;;0.00;0.00;;;;;;;32.36;32.93;100015.50;5116271;28;20214;-58
2023/09/24 12:05:54;;;;;;;0.00;0.00;;;;;;;34.61;29.52;100021.66;5114960;28;20237;-59
2023/09/24 12:08:40;;;;;;;0.00;0.00;;;;;;;32.88;30.55;100022.59;5115347;28;20202;-58
2023/09/24 12:11:28;;;;;;;0.00;0.00;;;;;;;34.52;30.18;100028.53;5114922;28;20218;-58
2023/09/24 12:14:14;;;;;;;0.00;0.00;;;;;;;35.95;28.05;100016.44;5115385;28;20194;-59
2023/09/24 12:17:04;;;;;;;0.00;0.00;;;;;;;34.90;29.06;100014.44;5115967;28;20202;-58
2023/09/24 12:19:52;;;;;;;0.00;0.00;;;;;;;35.41;28.00;100026.75;5116068;28;20252;-58
2023/09/24 12:22:41;;;;;;;0.00;0.00;;;;;;;31.90;32.42;100022.84;5115394;28;20268;-58
2023/09/24 12:25:29;;;;;;;0.00;0.00;;;;;;;31.20;32.89;100021.69;5113367;28;20263;-57
2023/09/24 12:28:15;;;;;;;0.00;0.00;;;;;;;32.44;32.89;100029.81;5115362;28;20206;-58
2023/09/24 12:31:04;;;;;;;0.00;0.00;;;;;;;31.28;33.55;100026.94;5115121;28;20194;-58
2023/09/24 12:33:52;;;;;;;0.00;0.00;;;;;;;33.35;30.92;100028.53;5115958;28;20218;-59
2023/09/24 12:36:39;;;;;;;0.00;0.00;;;;;;;34.12;30.03;100024.38;5115824;28;20210;-58
2023/09/24 12:39:26;;;;;;;0.00;0.00;;;;;;;33.26;31.13;100019.75;5114864;28;20321;-58
2023/09/24 12:42:13;;;;;;;0.00;0.00;;;;;;;31.77;31.27;100024.78;5099048;28;20209;-59
2023/09/24 12:45:00;;;;;;;0.00;0.00;;;;;;;32.22;31.66;100022.06;5115635;28;20198;-58
2023/09/24 12:47:47;;;;;;;0.00;0.00;;;;;;;32.70;32.77;100022.47;5114994;28;20181;-58
2023/09/24 12:50:36;;;;;;;0.00;0.00;;;;;;;32.04;32.69;100028.25;5115435;28;20308;-58
2023/09/24 12:53:23;;;;;;;0.00;0.00;;;;;;;34.78;29.54;100014.41;5115022;28;20260;-58
2023/09/24 12:56:10;;;;;;;0.00;0.00;;;;;;;33.67;29.25;100015.56;5112982;28;20791;-58
2023/09/24 12:59:00;;;;;;;0.00;0.00;;;;;;;33.45;30.40;100008.84;5115192;28;20244;-58
2023/09/24 13:01:47;;;;;;;0.00;0.00;;;;;;;32.66;31.08;100022.09;5115209;28;20198;-57
2023/09/24 13:04:34;;;;;;;0.00;0.00;;;;;;;33.33;31.18;100013.38;5115123;28;20657;-58